sensor_id;sensor_type;location;lat;lon;timestamp;pressure;altitude;pressure_sealevel;temperature;humidity
37972;BME280;23794;48.234;8.344;2023-07-02T00:00:09;93861.66;;;15.10;82.17
37972;BME280;23794;48.234;8.344;2023-07-02T00:02:37;93863.19;;;15.11;82.88
37972;BME280;23794;48.234;8.344;2023-07-02T00:05:05;93863.75;;;15.19;82.38
37972;BME280;23794;48.234;8.344;2023-07-02T00:07:32;93860.00;;;15.26;82.26
37972;BME280;23794;48.234;8.344;2023-07-02T00:10:00;93864.63;;;15.29;81.96
37972;BME280;23794;48.234;8.344;2023-07-02T00:12:30;93859.13;;;15.29;82.34
37972;BME280;23794;48.234;8.344;2023-07-02T00:14:56;93855.59;;;15.28;82.34
37972;BME280;23794;48.234;8.344;2023-07-02T00:17:23;93859.31;;;15.22;82.21
37972;BME280;23794;48.234;8.344;2023-07-02T00:19:50;93857.34;;;15.22;82.20
37972;BME280;23794;48.234;8.344;2023-07-02T00:22:18;93852.59;;;15.23;81.33
37972;BME280;23794;48.234;8.344;2023-07-02T00:24:45;93861.22;;;15.25;81.55
37972;BME280;23794;48.234;8.344;2023-07-02T00:27:11;93866.63;;;15.28;81.25
37972;BME280;23794;48.234;8.344;2023-07-02T00:29:38;93866.19;;;15.30;81.07
37972;BME280;23794;48.234;8.344;2023-07-02T00:32:05;93863.41;;;15.30;81.62
37972;BME280;23794;48.234;8.344;2023-07-02T00:34:32;93864.63;;;15.29;81.71
37972;BME280;23794;48.234;8.344;2023-07-02T00:36:59;93867.09;;;15.27;81.76
37972;BME280;23794;48.234;8.344;2023-07-02T00:39:26;93869.94;;;15.23;81.69
37972;BME280;23794;48.234;8.344;2023-07-02T00:41:52;93872.25;;;15.25;81.41
37972;BME280;23794;48.234;8.344;2023-07-02T00:44:19;93869.03;;;15.26;81.96
37972;BME280;23794;48.234;8.344;2023-07-02T00:46:50;93870.16;;;15.29;81.81
37972;BME280;23794;48.234;8.344;2023-07-02T00:49:18;93852.38;;;15.30;81.59
37972;BME280;23794;48.234;8.344;2023-07-02T00:51:45;93855.69;;;15.25;81.52
37972;BME280;23794;48.234;8.344;2023-07-02T00:54:11;93878.53;;;15.25;81.93
37972;BME280;23794;48.234;8.344;2023-07-02T00:56:38;93875.88;;;15.22;81.35
37972;BME280;23794;48.234;8.344;2023-07-02T00:59:05;93865.53;;;15.26;81.89
37972;BME280;23794;48.234;8.344;2023-07-02T01:01:33;93867.38;;;15.29;82.24
37972;BME280;23794;48.234;8.344;2023-07-02T01:04:06;93872.25;;;15.25;81.86
37972;BME280;23794;48.234;8.344;2023-07-02T01:06:35;93880.09;;;15.26;81.88
37972;BME280;23794;48.234;8.344;2023-07-02T01:09:04;93872.69;;;15.23;81.76
37972;BME280;23794;48.234;8.344;2023-07-02T01:11:40;93869.16;;;15.23;81.74
37972;BME280;23794;48.234;8.344;2023-07-02T01:14:09;93879.09;;;15.20;81.99
37972;BME280;23794;48.234;8.344;2023-07-02T01:16:41;93878.31;;;15.20;82.65
37972;BME280;23794;48.234;8.344;2023-07-02T01:19:13;93868.41;;;15.22;82.22
37972;BME280;23794;48.234;8.344;2023-07-02T01:21:49;93871.16;;;15.22;82.00
37972;BME280;23794;48.234;8.344;2023-07-02T01:24:16;93872.81;;;15.20;81.99
37972;BME280;23794;48.234;8.344;2023-07-02T01:26:45;93875.22;;;15.18;81.44
37972;BME280;23794;48.234;8.344;2023-07-02T01:29:16;93868.16;;;15.16;81.25
37972;BME280;23794;48.234;8.344;2023-07-02T01:31:44;93866.25;;;15.13;81.64
37972;BME280;23794;48.234;8.344;2023-07-02T01:34:11;93863.84;;;15.15;81.86
37972;BME280;23794;48.234;8.344;2023-07-02T01:36:39;93867.50;;;15.12;82.10
37972;BME280;23794;48.234;8.344;2023-07-02T01:39:08;93865.41;;;15.16;81.11
37972;BME280;23794;48.234;8.344;2023-07-02T01:41:43;93859.88;;;15.16;81.89
37972;BME280;23794;48.234;8.344;2023-07-02T01:44:13;93864.19;;;15.18;81.63
37972;BME280;23794;48.234;8.344;2023-07-02T01:46:39;93856.38;;;15.16;81.77
37972;BME280;23794;48.234;8.344;2023-07-02T01:49:07;93858.34;;;15.15;81.95
37972;BME280;23794;48.234;8.344;2023-07-02T01:51:34;93854.81;;;15.15;81.60
37972;BME280;23794;48.234;8.344;2023-07-02T01:54:01;93847.97;;;15.20;81.50
37972;BME280;23794;48.234;8.344;2023-07-02T01:56:30;93856.25;;;15.20;81.65
37972;BME280;23794;48.234;8.344;2023-07-02T01:58:58;93862.97;;;15.19;81.91
37972;BME280;23794;48.234;8.344;2023-07-02T02:01:25;93857.88;;;15.17;81.53
37972;BME280;23794;48.234;8.344;2023-07-02T02:03:53;93862.84;;;15.09;82.36
37972;BME280;23794;48.234;8.344;2023-07-02T02:06:20;93863.09;;;15.15;81.66
37972;BME280;23794;48.234;8.344;2023-07-02T02:08:47;93858.88;;;15.10;81.11
37972;BME280;23794;48.234;8.344;2023-07-02T02:11:13;93862.50;;;15.07;81.43
37972;BME280;23794;48.234;8.344;2023-07-02T02:13:40;93862.97;;;15.06;81.78
37972;BME280;23794;48.234;8.344;2023-07-02T02:16:06;93863.28;;;15.08;81.62
37972;BME280;23794;48.234;8.344;2023-07-02T02:18:33;93861.84;;;15.03;81.60
37972;BME280;23794;48.234;8.344;2023-07-02T02:21:01;93869.34;;;15.03;81.34
37972;BME280;23794;48.234;8.344;2023-07-02T02:23:27;93877.28;;;15.00;81.74
37972;BME280;23794;48.234;8.344;2023-07-02T02:25:54;93871.78;;;15.00;81.44
37972;BME280;23794;48.234;8.344;2023-07-02T02:28:20;93864.72;;;14.99;81.15
37972;BME280;23794;48.234;8.344;2023-07-02T02:30:47;93865.47;;;15.00;81.41
37972;BME280;23794;48.234;8.344;2023-07-02T02:33:15;93875.69;;;14.87;81.54
37972;BME280;23794;48.234;8.344;2023-07-02T02:35:43;93873.97;;;14.76;81.39
37972;BME280;23794;48.234;8.344;2023-07-02T02:38:10;93879.41;;;14.80;81.67
37972;BME280;23794;48.234;8.344;2023-07-02T02:40:38;93879.50;;;14.76;81.10
37972;BME280;23794;48.234;8.344;2023-07-02T02:43:07;93886.31;;;14.72;82.36
37972;BME280;23794;48.234;8.344;2023-07-02T02:45:36;93886.75;;;14.70;81.80
37972;BME280;23794;48.234;8.344;2023-07-02T02:48:03;93886.75;;;14.70;81.81
37972;BME280;23794;48.234;8.344;2023-07-02T02:50:30;93884.53;;;14.65;82.64
37972;BME280;23794;48.234;8.344;2023-07-02T02:52:56;93885.75;;;14.64;81.70
37972;BME280;23794;48.234;8.344;2023-07-02T02:55:23;93885.94;;;14.57;82.02
37972;BME280;23794;48.234;8.344;2023-07-02T02:57:50;93884.38;;;14.56;82.67
37972;BME280;23794;48.234;8.344;2023-07-02T03:00:16;93884.63;;;14.61;82.32
37972;BME280;23794;48.234;8.344;2023-07-02T03:02:43;93886.28;;;14.59;82.41
37972;BME280;23794;48.234;8.344;2023-07-02T03:05:10;93899.63;;;14.60;82.44
37972;BME280;23794;48.234;8.344;2023-07-02T03:07:37;93895.84;;;14.54;82.10
37972;BME280;23794;48.234;8.344;2023-07-02T03:10:04;93894.31;;;14.53;82.34
37972;BME280;23794;48.234;8.344;2023-07-02T03:12:31;93893.50;;;14.52;81.73
37972;BME280;23794;48.234;8.344;2023-07-02T03:14:58;93893.50;;;14.52;81.49
37972;BME280;23794;48.234;8.344;2023-07-02T03:17:25;93898.00;;;14.46;80.76
37972;BME280;23794;48.234;8.344;2023-07-02T03:19:52;93897.59;;;14.48;80.81
37972;BME280;23794;48.234;8.344;2023-07-02T03:22:19;93896.47;;;14.45;81.10
37972;BME280;23794;48.234;8.344;2023-07-02T03:24:45;93891.03;;;14.42;81.29
37972;BME280;23794;48.234;8.344;2023-07-02T03:27:15;93899.59;;;14.31;79.92
37972;BME280;23794;48.234;8.344;2023-07-02T03:29:42;93903.97;;;14.28;80.29
37972;BME280;23794;48.234;8.344;2023-07-02T03:32:08;93911.13;;;14.26;79.99
37972;BME280;23794;48.234;8.344;2023-07-02T03:34:35;93915.25;;;14.34;80.11
37972;BME280;23794;48.234;8.344;2023-07-02T03:37:02;93912.34;;;14.25;81.06
37972;BME280;23794;48.234;8.344;2023-07-02T03:39:28;93913.97;;;14.22;80.96
37972;BME280;23794;48.234;8.344;2023-07-02T03:41:55;93913.72;;;14.16;80.58
37972;BME280;23794;48.234;8.344;2023-07-02T03:44:22;93914.25;;;14.11;80.09
37972;BME280;23794;48.234;8.344;2023-07-02T03:46:49;93919.22;;;14.16;80.97
37972;BME280;23794;48.234;8.344;2023-07-02T03:49:16;93914.78;;;14.06;81.35
37972;BME280;23794;48.234;8.344;2023-07-02T03:51:43;93918.63;;;14.09;81.50
37972;BME280;23794;48.234;8.344;2023-07-02T03:54:09;93928.44;;;14.10;81.80
37972;BME280;23794;48.234;8.344;2023-07-02T03:56:36;93928.19;;;14.04;81.10
37972;BME280;23794;48.234;8.344;2023-07-02T03:59:02;93931.97;;;14.10;81.46
37972;BME280;23794;48.234;8.344;2023-07-02T04:01:29;93938.84;;;14.18;80.81
37972;BME280;23794;48.234;8.344;2023-07-02T04:03:56;93930.69;;;14.15;81.82
37972;BME280;23794;48.234;8.344;2023-07-02T04:06:23;93934.09;;;14.19;80.82
37972;BME280;23794;48.234;8.344;2023-07-02T04:08:50;93935.16;;;14.25;81.24
37972;BME280;23794;48.234;8.344;2023-07-02T04:11:17;93940.59;;;14.29;81.54
37972;BME280;23794;48.234;8.344;2023-07-02T04:13:43;93937.03;;;14.28;81.38
37972;BME280;23794;48.234;8.344;2023-07-02T04:16:10;93940.91;;;14.31;81.23
37972;BME280;23794;48.234;8.344;2023-07-02T04:18:37;93948.75;;;14.32;81.42
37972;BME280;23794;48.234;8.344;2023-07-02T04:21:03;93949.16;;;14.31;81.92
37972;BME280;23794;48.234;8.344;2023-07-02T04:23:32;93951.69;;;14.25;81.43
37972;BME280;23794;48.234;8.344;2023-07-02T04:25:59;93948.75;;;14.32;81.72
37972;BME280;23794;48.234;8.344;2023-07-02T04:28:46;93947.97;;;14.32;81.13
37972;BME280;23794;48.234;8.344;2023-07-02T04:31:12;93956.13;;;14.35;81.36
37972;BME280;23794;48.234;8.344;2023-07-02T04:33:39;93951.34;;;14.40;80.65
37972;BME280;23794;48.234;8.344;2023-07-02T04:36:06;93959.59;;;14.40;81.45
37972;BME280;23794;48.234;8.344;2023-07-02T04:38:33;93954.00;;;14.43;81.18
37972;BME280;23794;48.234;8.344;2023-07-02T04:40:59;93963.03;;;14.44;81.67
37972;BME280;23794;48.234;8.344;2023-07-02T04:43:32;93961.16;;;14.41;81.98
37972;BME280;23794;48.234;8.344;2023-07-02T04:46:00;93958.63;;;14.46;82.20
37972;BME280;23794;48.234;8.344;2023-07-02T04:48:27;93956.41;;;14.41;81.57
37972;BME280;23794;48.234;8.344;2023-07-02T04:50:54;93957.25;;;14.38;81.91
37972;BME280;23794;48.234;8.344;2023-07-02T04:53:20;93954.00;;;14.43;81.70
37972;BME280;23794;48.234;8.344;2023-07-02T04:55:47;93957.88;;;14.46;81.71
37972;BME280;23794;48.234;8.344;2023-07-02T04:58:14;93966.47;;;14.48;81.85
37972;BME280;23794;48.234;8.344;2023-07-02T05:00:41;93955.88;;;14.46;81.32
37972;BME280;23794;48.234;8.344;2023-07-02T05:03:08;93959.50;;;14.43;81.42
37972;BME280;23794;48.234;8.344;2023-07-02T05:05:35;93969.47;;;14.37;81.79
37972;BME280;23794;48.234;8.344;2023-07-02T05:08:01;93962.25;;;14.43;81.89
37972;BME280;23794;48.234;8.344;2023-07-02T05:10:31;93965.69;;;14.47;81.78
37972;BME280;23794;48.234;8.344;2023-07-02T05:12:57;93972.56;;;14.56;81.37
37972;BME280;23794;48.234;8.344;2023-07-02T05:15:24;93974.97;;;14.53;80.89
37972;BME280;23794;48.234;8.344;2023-07-02T05:17:51;93974.56;;;14.55;80.13
37972;BME280;23794;48.234;8.344;2023-07-02T05:20:17;93972.94;;;14.58;80.74
37972;BME280;23794;48.234;8.344;2023-07-02T05:22:44;93974.28;;;14.66;80.40
37972;BME280;23794;48.234;8.344;2023-07-02T05:25:10;93979.72;;;14.53;78.25
37972;BME280;23794;48.234;8.344;2023-07-02T05:27:37;93977.72;;;14.53;80.18
37972;BME280;23794;48.234;8.344;2023-07-02T05:30:04;93973.50;;;14.65;80.09
37972;BME280;23794;48.234;8.344;2023-07-02T05:32:33;93973.41;;;14.69;80.07
37972;BME280;23794;48.234;8.344;2023-07-02T05:35:00;93977.19;;;14.75;79.94
37972;BME280;23794;48.234;8.344;2023-07-02T05:37:27;93978.75;;;14.76;79.28
37972;BME280;23794;48.234;8.344;2023-07-02T05:39:54;93983.34;;;14.83;78.89
37972;BME280;23794;48.234;8.344;2023-07-02T05:42:20;93984.09;;;14.83;78.50
37972;BME280;23794;48.234;8.344;2023-07-02T05:44:47;93984.34;;;14.89;77.80
37972;BME280;23794;48.234;8.344;2023-07-02T05:47:14;93979.84;;;14.95;76.30
37972;BME280;23794;48.234;8.344;2023-07-02T05:49:43;93986.28;;;15.05;75.73
37972;BME280;23794;48.234;8.344;2023-07-02T05:52:10;93996.09;;;15.06;77.03
37972;BME280;23794;48.234;8.344;2023-07-02T05:54:42;93985.91;;;15.20;77.95
37972;BME280;23794;48.234;8.344;2023-07-02T05:57:09;93988.56;;;15.23;75.29
37972;BME280;23794;48.234;8.344;2023-07-02T05:59:37;93997.31;;;15.35;76.40
37972;BME280;23794;48.234;8.344;2023-07-02T06:02:04;93992.34;;;15.29;75.63
37972;BME280;23794;48.234;8.344;2023-07-02T06:04:31;93995.50;;;15.28;75.27
37972;BME280;23794;48.234;8.344;2023-07-02T06:06:58;94011.00;;;15.38;75.67
37972;BME280;23794;48.234;8.344;2023-07-02T06:09:24;94012.38;;;15.46;74.52
37972;BME280;23794;48.234;8.344;2023-07-02T06:11:51;94006.88;;;15.59;74.20
37972;BME280;23794;48.234;8.344;2023-07-02T06:14:17;94002.13;;;15.60;73.37
37972;BME280;23794;48.234;8.344;2023-07-02T06:16:44;94005.63;;;15.47;73.38
37972;BME280;23794;48.234;8.344;2023-07-02T06:19:11;94004.34;;;15.65;73.88
37972;BME280;23794;48.234;8.344;2023-07-02T06:21:38;94001.94;;;15.80;73.76
37972;BME280;23794;48.234;8.344;2023-07-02T06:24:04;94010.91;;;15.84;73.76
37972;BME280;23794;48.234;8.344;2023-07-02T06:26:31;94009.88;;;15.78;72.13
37972;BME280;23794;48.234;8.344;2023-07-02T06:28:59;94013.94;;;15.73;72.08
37972;BME280;23794;48.234;8.344;2023-07-02T06:31:25;94015.75;;;15.80;72.70
37972;BME280;23794;48.234;8.344;2023-07-02T06:33:52;94020.06;;;15.81;72.95
37972;BME280;23794;48.234;8.344;2023-07-02T06:36:19;94010.16;;;15.97;70.99
37972;BME280;23794;48.234;8.344;2023-07-02T06:38:46;94019.31;;;15.93;71.22
37972;BME280;23794;48.234;8.344;2023-07-02T06:41:12;94026.13;;;15.89;70.57
37972;BME280;23794;48.234;8.344;2023-07-02T06:43:41;94030.31;;;15.80;70.95
37972;BME280;23794;48.234;8.344;2023-07-02T06:46:10;94035.75;;;15.84;70.65
37972;BME280;23794;48.234;8.344;2023-07-02T06:48:37;94035.13;;;15.93;70.96
37972;BME280;23794;48.234;8.344;2023-07-02T06:51:03;94034.25;;;16.22;69.81
37972;BME280;23794;48.234;8.344;2023-07-02T06:53:30;94032.47;;;16.54;66.44
37972;BME280;23794;48.234;8.344;2023-07-02T06:55:56;94028.91;;;16.79;66.26
37972;BME280;23794;48.234;8.344;2023-07-02T06:58:25;94028.31;;;16.97;66.71
37972;BME280;23794;48.234;8.344;2023-07-02T07:00:52;94024.28;;;16.63;65.05
37972;BME280;23794;48.234;8.344;2023-07-02T07:03:19;94040.66;;;16.45;65.32
37972;BME280;23794;48.234;8.344;2023-07-02T07:05:45;94042.56;;;16.48;65.30
37972;BME280;23794;48.234;8.344;2023-07-02T07:08:12;94035.97;;;16.80;64.87
37972;BME280;23794;48.234;8.344;2023-07-02T07:10:39;94039.72;;;16.99;63.18
37972;BME280;23794;48.234;8.344;2023-07-02T07:13:06;94042.38;;;17.03;62.52
37972;BME280;23794;48.234;8.344;2023-07-02T07:15:36;94043.47;;;17.05;61.63
37972;BME280;23794;48.234;8.344;2023-07-02T07:18:03;94042.34;;;17.16;61.38
37972;BME280;23794;48.234;8.344;2023-07-02T07:20:31;94045.75;;;17.20;61.45
37972;BME280;23794;48.234;8.344;2023-07-02T07:22:58;94051.06;;;17.14;59.11
37972;BME280;23794;48.234;8.344;2023-07-02T07:25:25;94043.81;;;17.30;58.30
37972;BME280;23794;48.234;8.344;2023-07-02T07:27:52;94046.09;;;17.44;58.13
37972;BME280;23794;48.234;8.344;2023-07-02T07:30:19;94049.88;;;17.60;58.17
37972;BME280;23794;48.234;8.344;2023-07-02T07:32:52;94036.09;;;17.91;58.66
37972;BME280;23794;48.234;8.344;2023-07-02T07:35:21;94043.78;;;18.09;57.10
37972;BME280;23794;48.234;8.344;2023-07-02T07:37:48;94040.53;;;18.11;56.47
37972;BME280;23794;48.234;8.344;2023-07-02T07:40:15;94048.97;;;17.85;56.26
37972;BME280;23794;48.234;8.344;2023-07-02T07:42:42;94052.13;;;17.74;55.43
37972;BME280;23794;48.234;8.344;2023-07-02T07:45:10;94039.28;;;17.58;56.43
37972;BME280;23794;48.234;8.344;2023-07-02T07:47:38;94039.28;;;17.80;57.72
37972;BME280;23794;48.234;8.344;2023-07-02T07:50:07;94044.41;;;17.91;57.03
37972;BME280;23794;48.234;8.344;2023-07-02T07:52:43;94046.22;;;17.85;56.76
37972;BME280;23794;48.234;8.344;2023-07-02T07:55:09;94043.53;;;17.94;57.12
37972;BME280;23794;48.234;8.344;2023-07-02T07:57:37;94042.97;;;18.09;56.44
37972;BME280;23794;48.234;8.344;2023-07-02T08:00:04;94043.56;;;17.81;56.42
37972;BME280;23794;48.234;8.344;2023-07-02T08:02:45;94053.28;;;17.86;56.42
37972;BME280;23794;48.234;8.344;2023-07-02T08:05:13;94043.97;;;18.24;55.72
37972;BME280;23794;48.234;8.344;2023-07-02T08:07:40;94053.44;;;18.36;54.34
37972;BME280;23794;48.234;8.344;2023-07-02T08:10:07;94043.00;;;18.50;52.30
37972;BME280;23794;48.234;8.344;2023-07-02T08:12:37;94045.91;;;18.37;53.44
37972;BME280;23794;48.234;8.344;2023-07-02T08:15:03;94048.84;;;18.42;53.67
37972;BME280;23794;48.234;8.344;2023-07-02T08:17:30;94048.34;;;18.75;53.04
37972;BME280;23794;48.234;8.344;2023-07-02T08:19:57;94044.03;;;18.84;51.17
37972;BME280;23794;48.234;8.344;2023-07-02T08:22:24;94053.47;;;18.45;51.28
37972;BME280;23794;48.234;8.344;2023-07-02T08:24:51;94051.97;;;18.54;50.99
37972;BME280;23794;48.234;8.344;2023-07-02T08:27:18;94044.81;;;18.84;52.12
37972;BME280;23794;48.234;8.344;2023-07-02T08:29:49;94050.75;;;19.14;51.53
37972;BME280;23794;48.234;8.344;2023-07-02T08:32:16;94053.84;;;19.16;49.75
37972;BME280;23794;48.234;8.344;2023-07-02T08:34:43;94046.81;;;18.84;49.32
37972;BME280;23794;48.234;8.344;2023-07-02T08:37:09;94041.03;;;18.50;49.05
37972;BME280;23794;48.234;8.344;2023-07-02T08:39:37;94044.00;;;18.74;50.43
37972;BME280;23794;48.234;8.344;2023-07-02T08:42:06;94034.63;;;18.81;49.76
37972;BME280;23794;48.234;8.344;2023-07-02T08:44:34;94051.34;;;19.00;50.40
37972;BME280;23794;48.234;8.344;2023-07-02T08:47:02;94045.84;;;19.55;50.64
37972;BME280;23794;48.234;8.344;2023-07-02T08:49:29;94047.06;;;19.82;47.45
37972;BME280;23794;48.234;8.344;2023-07-02T08:51:55;94039.66;;;19.79;47.14
37972;BME280;23794;48.234;8.344;2023-07-02T08:54:22;94045.97;;;19.70;46.10
37972;BME280;23794;48.234;8.344;2023-07-02T08:56:49;94047.50;;;19.62;47.14
37972;BME280;23794;48.234;8.344;2023-07-02T08:59:16;94040.91;;;19.50;47.00
37972;BME280;23794;48.234;8.344;2023-07-02T09:01:46;94050.28;;;19.25;47.36
37972;BME280;23794;48.234;8.344;2023-07-02T09:04:20;94056.44;;;19.01;47.01
37972;BME280;23794;48.234;8.344;2023-07-02T09:06:50;94047.31;;;18.91;46.69
37972;BME280;23794;48.234;8.344;2023-07-02T09:09:17;94062.31;;;19.13;46.74
37972;BME280;23794;48.234;8.344;2023-07-02T09:11:48;94057.38;;;19.17;47.16
37972;BME280;23794;48.234;8.344;2023-07-02T09:14:29;94052.16;;;19.37;46.05
37972;BME280;23794;48.234;8.344;2023-07-02T09:17:02;94050.16;;;19.19;46.49
37972;BME280;23794;48.234;8.344;2023-07-02T09:19:30;94063.38;;;19.06;46.43
37972;BME280;23794;48.234;8.344;2023-07-02T09:21:58;94055.97;;;19.03;47.91
37972;BME280;23794;48.234;8.344;2023-07-02T09:24:30;94054.31;;;19.15;47.81
37972;BME280;23794;48.234;8.344;2023-07-02T09:26:59;94057.56;;;19.41;46.81
37972;BME280;23794;48.234;8.344;2023-07-02T09:29:31;94051.53;;;19.33;46.29
37972;BME280;23794;48.234;8.344;2023-07-02T09:32:04;94043.97;;;19.34;46.92
37972;BME280;23794;48.234;8.344;2023-07-02T09:34:47;94047.06;;;19.64;46.16
37972;BME280;23794;48.234;8.344;2023-07-02T09:37:14;94051.53;;;19.89;45.85
37972;BME280;23794;48.234;8.344;2023-07-02T09:39:41;94050.72;;;19.98;45.63
37972;BME280;23794;48.234;8.344;2023-07-02T09:42:08;94060.94;;;19.92;45.81
37972;BME280;23794;48.234;8.344;2023-07-02T09:44:37;94057.81;;;20.08;44.90
37972;BME280;23794;48.234;8.344;2023-07-02T09:47:09;94055.41;;;20.44;45.02
37972;BME280;23794;48.234;8.344;2023-07-02T09:49:42;94042.56;;;20.46;45.64
37972;BME280;23794;48.234;8.344;2023-07-02T09:52:10;94043.22;;;20.41;44.26
37972;BME280;23794;48.234;8.344;2023-07-02T09:54:37;94047.66;;;20.48;45.12
37972;BME280;23794;48.234;8.344;2023-07-02T09:57:05;94042.41;;;20.50;44.37
37972;BME280;23794;48.234;8.344;2023-07-02T09:59:35;94049.78;;;20.53;42.15
37972;BME280;23794;48.234;8.344;2023-07-02T10:02:02;94050.09;;;20.55;43.90
37972;BME280;23794;48.234;8.344;2023-07-02T10:04:39;94062.28;;;20.67;42.10
37972;BME280;23794;48.234;8.344;2023-07-02T10:07:06;94044.41;;;20.83;43.65
37972;BME280;23794;48.234;8.344;2023-07-02T10:09:38;94055.75;;;21.28;43.33
37972;BME280;23794;48.234;8.344;2023-07-02T10:12:27;94055.63;;;21.22;40.98
37972;BME280;23794;48.234;8.344;2023-07-02T10:14:57;94047.00;;;21.44;42.58
37972;BME280;23794;48.234;8.344;2023-07-02T10:17:34;94046.06;;;21.62;42.08
37972;BME280;23794;48.234;8.344;2023-07-02T10:20:05;94048.59;;;21.75;42.39
37972;BME280;23794;48.234;8.344;2023-07-02T10:22:44;94054.00;;;21.79;40.59
37972;BME280;23794;48.234;8.344;2023-07-02T10:25:11;94054.38;;;22.02;40.72
37972;BME280;23794;48.234;8.344;2023-07-02T10:27:40;94052.97;;;21.28;38.00
37972;BME280;23794;48.234;8.344;2023-07-02T10:30:08;94050.84;;;21.23;39.19
37972;BME280;23794;48.234;8.344;2023-07-02T10:32:36;94054.56;;;21.44;38.91
37972;BME280;23794;48.234;8.344;2023-07-02T10:35:15;94046.28;;;21.35;39.00
37972;BME280;23794;48.234;8.344;2023-07-02T10:37:42;94053.06;;;21.09;39.60
37972;BME280;23794;48.234;8.344;2023-07-02T10:40:10;94047.88;;;21.51;40.69
37972;BME280;23794;48.234;8.344;2023-07-02T10:42:49;94040.97;;;21.61;40.22
37972;BME280;23794;48.234;8.344;2023-07-02T10:45:16;94058.50;;;21.91;39.93
37972;BME280;23794;48.234;8.344;2023-07-02T10:47:44;94042.94;;;22.00;38.72
37972;BME280;23794;48.234;8.344;2023-07-02T10:52:41;94040.66;;;22.28;38.95
37972;BME280;23794;48.234;8.344;2023-07-02T10:55:07;94047.16;;;22.55;39.71
37972;BME280;23794;48.234;8.344;2023-07-02T10:57:34;94051.28;;;22.74;39.33
37972;BME280;23794;48.234;8.344;2023-07-02T11:00:05;94040.22;;;22.65;38.33
37972;BME280;23794;48.234;8.344;2023-07-02T11:02:35;94036.94;;;22.67;38.81
37972;BME280;23794;48.234;8.344;2023-07-02T11:05:02;94036.59;;;22.59;37.94
37972;BME280;23794;48.234;8.344;2023-07-02T11:07:29;94023.22;;;22.48;38.75
37972;BME280;23794;48.234;8.344;2023-07-02T11:09:56;94029.16;;;22.56;38.22
37972;BME280;23794;48.234;8.344;2023-07-02T11:12:32;94036.09;;;22.61;38.02
37972;BME280;23794;48.234;8.344;2023-07-02T11:15:09;94032.09;;;23.18;38.73
37972;BME280;23794;48.234;8.344;2023-07-02T11:17:35;94029.00;;;23.36;38.54
37972;BME280;23794;48.234;8.344;2023-07-02T11:20:02;94001.50;;;23.29;37.34
37972;BME280;23794;48.234;8.344;2023-07-02T11:22:35;94014.00;;;23.34;37.94
37972;BME280;23794;48.234;8.344;2023-07-02T11:25:17;94014.06;;;23.40;38.52
37972;BME280;23794;48.234;8.344;2023-07-02T11:27:44;94019.28;;;23.52;38.25
37972;BME280;23794;48.234;8.344;2023-07-02T11:30:11;94007.59;;;23.75;37.91
37972;BME280;23794;48.234;8.344;2023-07-02T11:32:52;94008.16;;;24.05;36.14
37972;BME280;23794;48.234;8.344;2023-07-02T11:35:20;94008.16;;;23.79;36.36
37972;BME280;23794;48.234;8.344;2023-07-02T11:37:48;94012.25;;;23.57;36.77
37972;BME280;23794;48.234;8.344;2023-07-02T11:40:19;94010.47;;;23.60;35.69
37972;BME280;23794;48.234;8.344;2023-07-02T11:42:46;94016.31;;;23.35;36.41
37972;BME280;23794;48.234;8.344;2023-07-02T11:45:13;94018.47;;;23.67;36.33
37972;BME280;23794;48.234;8.344;2023-07-02T11:47:40;94002.81;;;23.55;36.73
37972;BME280;23794;48.234;8.344;2023-07-02T11:50:07;94007.66;;;23.33;37.40
37972;BME280;23794;48.234;8.344;2023-07-02T11:52:51;94022.38;;;23.13;37.91
37972;BME280;23794;48.234;8.344;2023-07-02T11:55:18;94016.75;;;23.28;37.45
37972;BME280;23794;48.234;8.344;2023-07-02T11:57:45;94003.44;;;23.44;37.48
37972;BME280;23794;48.234;8.344;2023-07-02T12:00:14;94013.03;;;23.37;38.15
37972;BME280;23794;48.234;8.344;2023-07-02T12:02:42;94006.81;;;23.27;38.41
37972;BME280;23794;48.234;8.344;2023-07-02T12:05:09;94016.72;;;23.70;38.60
37972;BME280;23794;48.234;8.344;2023-07-02T12:07:38;94004.75;;;24.22;37.48
37972;BME280;23794;48.234;8.344;2023-07-02T12:10:07;94020.16;;;24.11;37.18
37972;BME280;23794;48.234;8.344;2023-07-02T12:12:33;94016.88;;;24.13;36.80
37972;BME280;23794;48.234;8.344;2023-07-02T12:15:00;94009.88;;;23.97;38.23
37972;BME280;23794;48.234;8.344;2023-07-02T12:17:27;94012.22;;;24.04;37.63
37972;BME280;23794;48.234;8.344;2023-07-02T12:19:54;94016.84;;;23.40;40.20
37972;BME280;23794;48.234;8.344;2023-07-02T12:22:20;94014.28;;;23.83;38.77
37972;BME280;23794;48.234;8.344;2023-07-02T12:24:48;94011.66;;;24.26;36.92
37972;BME280;23794;48.234;8.344;2023-07-02T12:27:16;94015.63;;;23.20;39.44
37972;BME280;23794;48.234;8.344;2023-07-02T12:29:43;94023.91;;;22.94;40.06
37972;BME280;23794;48.234;8.344;2023-07-02T12:32:10;94023.13;;;23.14;40.18
37972;BME280;23794;48.234;8.344;2023-07-02T12:34:37;94022.59;;;22.74;39.96
37972;BME280;23794;48.234;8.344;2023-07-02T12:37:04;94023.69;;;22.47;40.44
37972;BME280;23794;48.234;8.344;2023-07-02T12:39:31;94016.34;;;22.64;40.52
37972;BME280;23794;48.234;8.344;2023-07-02T12:41:57;94016.50;;;22.76;40.37
37972;BME280;23794;48.234;8.344;2023-07-02T12:44:24;94020.84;;;22.77;40.66
37972;BME280;23794;48.234;8.344;2023-07-02T12:46:51;94019.72;;;23.04;39.59
37972;BME280;23794;48.234;8.344;2023-07-02T12:49:18;94016.66;;;23.90;38.35
37972;BME280;23794;48.234;8.344;2023-07-02T12:51:44;94010.56;;;24.18;38.10
37972;BME280;23794;48.234;8.344;2023-07-02T12:54:11;94013.78;;;24.37;38.32
37972;BME280;23794;48.234;8.344;2023-07-02T12:56:38;94014.00;;;24.34;38.38
37972;BME280;23794;48.234;8.344;2023-07-02T12:59:04;94009.47;;;24.74;36.98
37972;BME280;23794;48.234;8.344;2023-07-02T13:01:31;94011.53;;;24.15;38.41
37972;BME280;23794;48.234;8.344;2023-07-02T13:03:58;94014.78;;;24.66;36.78
37972;BME280;23794;48.234;8.344;2023-07-02T13:06:26;94012.44;;;24.65;37.45